sensor_id;sensor_type;location;lat;lon;timestamp;P1;durP1;ratioP1;P2;durP2;ratioP2
48403;SDS011;34202;52.536;6.042;2024-03-08T00:00:19;36.20;;;21.70;;
48403;SDS011;34202;52.536;6.042;2024-03-08T00:05:19;33.50;;;19.10;;
48403;SDS011;34202;52.536;6.042;2024-03-08T00:10:20;30.50;;;17.20;;
48403;SDS011;34202;52.536;6.042;2024-03-08T00:15:21;29.40;;;17.50;;
48403;SDS011;34202;52.536;6.042;2024-03-08T00:20:23;33.20;;;19.20;;
48403;SDS011;34202;52.536;6.042;2024-03-08T00:25:23;36.10;;;19.30;;
48403;SDS011;34202;52.536;6.042;2024-03-08T00:30:24;31.20;;;18.00;;
48403;SDS011;34202;52.536;6.042;2024-03-08T00:35:25;33.50;;;18.80;;
48403;SDS011;34202;52.536;6.042;2024-03-08T00:40:25;35.60;;;18.90;;
48403;SDS011;34202;52.536;6.042;2024-03-08T00:45:26;32.00;;;18.60;;
48403;SDS011;34202;52.536;6.042;2024-03-08T00:50:26;37.00;;;19.70;;
48403;SDS011;34202;52.536;6.042;2024-03-08T00:55:27;37.00;;;18.50;;
48403;SDS011;34202;52.536;6.042;2024-03-08T01:00:27;33.60;;;18.40;;
48403;SDS011;34202;52.536;6.042;2024-03-08T01:05:27;38.10;;;20.90;;
48403;SDS011;34202;52.536;6.042;2024-03-08T01:10:29;32.00;;;18.70;;
48403;SDS011;34202;52.536;6.042;2024-03-08T01:15:29;34.00;;;20.20;;
48403;SDS011;34202;52.536;6.042;2024-03-08T01:20:30;32.40;;;19.40;;
48403;SDS011;34202;52.536;6.042;2024-03-08T01:25:31;32.70;;;19.10;;
48403;SDS011;34202;52.536;6.042;2024-03-08T01:30:32;32.40;;;19.30;;
48403;SDS011;34202;52.536;6.042;2024-03-08T01:35:34;39.40;;;19.80;;
48403;SDS011;34202;52.536;6.042;2024-03-08T01:40:34;32.90;;;18.80;;
48403;SDS011;34202;52.536;6.042;2024-03-08T01:45:36;31.50;;;19.40;;
48403;SDS011;34202;52.536;6.042;2024-03-08T01:50:37;41.60;;;20.50;;
48403;SDS011;34202;52.536;6.042;2024-03-08T01:55:39;33.20;;;19.10;;
48403;SDS011;34202;52.536;6.042;2024-03-08T02:00:44;29.60;;;17.50;;
48403;SDS011;34202;52.536;6.042;2024-03-08T02:05:46;33.30;;;17.90;;
48403;SDS011;34202;52.536;6.042;2024-03-08T02:10:46;40.40;;;20.70;;
48403;SDS011;34202;52.536;6.042;2024-03-08T02:15:54;34.90;;;20.20;;
48403;SDS011;34202;52.536;6.042;2024-03-08T02:20:56;33.10;;;21.00;;
48403;SDS011;34202;52.536;6.042;2024-03-08T02:25:58;42.80;;;20.20;;
48403;SDS011;34202;52.536;6.042;2024-03-08T02:30:58;36.50;;;19.20;;
48403;SDS011;34202;52.536;6.042;2024-03-08T02:35:59;33.60;;;17.40;;
48403;SDS011;34202;52.536;6.042;2024-03-08T02:41:00;34.10;;;20.10;;
48403;SDS011;34202;52.536;6.042;2024-03-08T02:46:00;32.00;;;18.60;;
48403;SDS011;34202;52.536;6.042;2024-03-08T02:51:01;31.20;;;19.40;;
48403;SDS011;34202;52.536;6.042;2024-03-08T02:56:02;33.20;;;19.50;;
48403;SDS011;34202;52.536;6.042;2024-03-08T03:01:03;35.80;;;20.60;;
48403;SDS011;34202;52.536;6.042;2024-03-08T03:06:03;34.00;;;20.20;;
48403;SDS011;34202;52.536;6.042;2024-03-08T03:11:04;38.40;;;20.30;;
48403;SDS011;34202;52.536;6.042;2024-03-08T03:16:04;33.60;;;19.80;;
48403;SDS011;34202;52.536;6.042;2024-03-08T03:21:05;36.90;;;20.00;;
48403;SDS011;34202;52.536;6.042;2024-03-08T03:26:10;38.60;;;23.40;;
48403;SDS011;34202;52.536;6.042;2024-03-08T03:31:12;36.50;;;22.60;;
48403;SDS011;34202;52.536;6.042;2024-03-08T03:36:14;37.00;;;21.30;;
48403;SDS011;34202;52.536;6.042;2024-03-08T03:41:16;37.70;;;22.30;;
48403;SDS011;34202;52.536;6.042;2024-03-08T03:46:17;39.50;;;20.80;;
48403;SDS011;34202;52.536;6.042;2024-03-08T03:51:18;32.00;;;18.30;;
48403;SDS011;34202;52.536;6.042;2024-03-08T03:56:19;36.40;;;22.50;;
48403;SDS011;34202;52.536;6.042;2024-03-08T04:01:25;35.40;;;22.00;;
48403;SDS011;34202;52.536;6.042;2024-03-08T04:06:25;34.40;;;20.30;;
48403;SDS011;34202;52.536;6.042;2024-03-08T04:11:25;38.80;;;23.00;;
48403;SDS011;34202;52.536;6.042;2024-03-08T04:16:26;37.80;;;22.90;;
48403;SDS011;34202;52.536;6.042;2024-03-08T04:21:26;33.00;;;20.80;;
48403;SDS011;34202;52.536;6.042;2024-03-08T04:26:27;36.10;;;22.40;;
48403;SDS011;34202;52.536;6.042;2024-03-08T04:31:27;37.60;;;21.00;;
48403;SDS011;34202;52.536;6.042;2024-03-08T04:36:28;32.70;;;19.40;;
48403;SDS011;34202;52.536;6.042;2024-03-08T04:41:28;39.20;;;22.40;;
48403;SDS011;34202;52.536;6.042;2024-03-08T04:46:30;36.30;;;23.90;;
48403;SDS011;34202;52.536;6.042;2024-03-08T04:51:31;39.30;;;24.50;;
48403;SDS011;34202;52.536;6.042;2024-03-08T04:56:31;35.30;;;21.30;;
48403;SDS011;34202;52.536;6.042;2024-03-08T05:01:31;41.10;;;25.50;;
48403;SDS011;34202;52.536;6.042;2024-03-08T05:06:33;37.20;;;23.60;;
48403;SDS011;34202;52.536;6.042;2024-03-08T05:11:33;41.90;;;26.30;;
48403;SDS011;34202;52.536;6.042;2024-03-08T05:16:34;36.10;;;23.40;;
48403;SDS011;34202;52.536;6.042;2024-03-08T05:21:35;34.80;;;23.90;;
48403;SDS011;34202;52.536;6.042;2024-03-08T05:26:35;44.50;;;25.70;;
48403;SDS011;34202;52.536;6.042;2024-03-08T05:31:47;45.40;;;25.10;;
48403;SDS011;34202;52.536;6.042;2024-03-08T05:36:49;38.10;;;26.40;;
48403;SDS011;34202;52.536;6.042;2024-03-08T05:41:50;40.20;;;24.40;;
48403;SDS011;34202;52.536;6.042;2024-03-08T05:46:51;43.00;;;25.50;;
48403;SDS011;34202;52.536;6.042;2024-03-08T05:51:51;40.00;;;26.80;;
48403;SDS011;34202;52.536;6.042;2024-03-08T05:56:53;34.90;;;21.40;;
48403;SDS011;34202;52.536;6.042;2024-03-08T06:01:54;43.30;;;26.40;;
48403;SDS011;34202;52.536;6.042;2024-03-08T06:06:55;38.20;;;24.10;;
48403;SDS011;34202;52.536;6.042;2024-03-08T06:11:57;38.70;;;25.10;;
48403;SDS011;34202;52.536;6.042;2024-03-08T06:16:57;41.50;;;26.30;;
48403;SDS011;34202;52.536;6.042;2024-03-08T06:21:58;35.80;;;23.10;;
48403;SDS011;34202;52.536;6.042;2024-03-08T06:26:58;40.50;;;24.80;;
48403;SDS011;34202;52.536;6.042;2024-03-08T06:31:58;38.00;;;24.20;;
48403;SDS011;34202;52.536;6.042;2024-03-08T06:37:00;40.40;;;27.20;;
48403;SDS011;34202;52.536;6.042;2024-03-08T06:42:01;42.00;;;25.30;;
48403;SDS011;34202;52.536;6.042;2024-03-08T06:47:02;35.90;;;20.60;;
48403;SDS011;34202;52.536;6.042;2024-03-08T06:52:03;34.20;;;22.00;;
48403;SDS011;34202;52.536;6.042;2024-03-08T06:57:04;43.90;;;23.90;;
48403;SDS011;34202;52.536;6.042;2024-03-08T07:02:07;37.30;;;20.80;;
48403;SDS011;34202;52.536;6.042;2024-03-08T07:07:11;41.20;;;24.30;;
48403;SDS011;34202;52.536;6.042;2024-03-08T07:12:11;42.50;;;24.60;;
48403;SDS011;34202;52.536;6.042;2024-03-08T07:17:13;45.80;;;26.40;;
48403;SDS011;34202;52.536;6.042;2024-03-08T07:22:14;38.10;;;22.20;;
48403;SDS011;34202;52.536;6.042;2024-03-08T07:27:14;41.20;;;24.70;;
48403;SDS011;34202;52.536;6.042;2024-03-08T07:32:15;41.20;;;27.50;;
48403;SDS011;34202;52.536;6.042;2024-03-08T07:37:21;44.90;;;27.30;;
48403;SDS011;34202;52.536;6.042;2024-03-08T07:42:22;40.90;;;24.20;;
48403;SDS011;34202;52.536;6.042;2024-03-08T07:47:23;42.70;;;24.70;;
48403;SDS011;34202;52.536;6.042;2024-03-08T07:52:23;45.20;;;27.30;;
48403;SDS011;34202;52.536;6.042;2024-03-08T07:57:24;44.40;;;24.80;;
48403;SDS011;34202;52.536;6.042;2024-03-08T08:02:26;36.00;;;22.70;;
48403;SDS011;34202;52.536;6.042;2024-03-08T08:07:27;38.40;;;26.30;;
48403;SDS011;34202;52.536;6.042;2024-03-08T08:12:27;38.60;;;25.00;;
48403;SDS011;34202;52.536;6.042;2024-03-08T08:17:29;41.40;;;25.90;;
48403;SDS011;34202;52.536;6.042;2024-03-08T08:22:29;40.70;;;25.30;;
48403;SDS011;34202;52.536;6.042;2024-03-08T08:27:30;36.80;;;24.40;;
48403;SDS011;34202;52.536;6.042;2024-03-08T08:32:30;30.70;;;20.40;;
48403;SDS011;34202;52.536;6.042;2024-03-08T08:37:32;41.90;;;27.00;;
48403;SDS011;34202;52.536;6.042;2024-03-08T08:42:34;33.50;;;23.10;;
48403;SDS011;34202;52.536;6.042;2024-03-08T08:47:37;39.50;;;24.90;;
48403;SDS011;34202;52.536;6.042;2024-03-08T08:52:38;36.00;;;24.10;;
48403;SDS011;34202;52.536;6.042;2024-03-08T08:57:40;36.60;;;25.30;;
48403;SDS011;34202;52.536;6.042;2024-03-08T09:02:41;37.90;;;26.20;;
48403;SDS011;34202;52.536;6.042;2024-03-08T09:07:43;37.20;;;23.70;;
48403;SDS011;34202;52.536;6.042;2024-03-08T09:12:47;38.50;;;24.20;;
48403;SDS011;34202;52.536;6.042;2024-03-08T09:17:47;42.70;;;25.40;;
48403;SDS011;34202;52.536;6.042;2024-03-08T09:22:48;35.90;;;24.00;;
48403;SDS011;34202;52.536;6.042;2024-03-08T09:27:49;36.90;;;23.10;;
48403;SDS011;34202;52.536;6.042;2024-03-08T09:32:49;41.30;;;23.50;;
48403;SDS011;34202;52.536;6.042;2024-03-08T09:37:51;34.80;;;22.90;;
48403;SDS011;34202;52.536;6.042;2024-03-08T09:42:51;34.00;;;23.80;;
48403;SDS011;34202;52.536;6.042;2024-03-08T09:47:52;33.90;;;22.50;;
48403;SDS011;34202;52.536;6.042;2024-03-08T09:52:54;33.50;;;22.60;;
48403;SDS011;34202;52.536;6.042;2024-03-08T09:57:57;31.40;;;22.70;;
48403;SDS011;34202;52.536;6.042;2024-03-08T10:03:19;36.60;;;23.10;;
48403;SDS011;34202;52.536;6.042;2024-03-08T10:08:20;34.10;;;21.40;;
48403;SDS011;34202;52.536;6.042;2024-03-08T10:13:20;34.90;;;22.60;;
48403;SDS011;34202;52.536;6.042;2024-03-08T10:18:21;35.60;;;23.40;;
48403;SDS011;34202;52.536;6.042;2024-03-08T10:23:22;34.50;;;20.90;;
48403;SDS011;34202;52.536;6.042;2024-03-08T10:28:23;28.60;;;20.60;;
48403;SDS011;34202;52.536;6.042;2024-03-08T10:33:28;31.00;;;21.70;;
48403;SDS011;34202;52.536;6.042;2024-03-08T10:38:30;34.20;;;20.30;;
48403;SDS011;34202;52.536;6.042;2024-03-08T10:43:36;32.50;;;23.60;;
48403;SDS011;34202;52.536;6.042;2024-03-08T10:49:08;32.20;;;22.70;;
48403;SDS011;34202;52.536;6.042;2024-03-08T10:54:14;31.90;;;22.10;;
48403;SDS011;34202;52.536;6.042;2024-03-08T10:59:16;31.80;;;22.60;;
48403;SDS011;34202;52.536;6.042;2024-03-08T11:04:19;33.70;;;22.40;;
48403;SDS011;34202;52.536;6.042;2024-03-08T11:09:29;31.30;;;21.70;;
48403;SDS011;34202;52.536;6.042;2024-03-08T11:14:43;31.20;;;22.10;;
48403;SDS011;34202;52.536;6.042;2024-03-08T11:19:46;28.60;;;19.50;;
48403;SDS011;34202;52.536;6.042;2024-03-08T11:24:48;32.60;;;21.70;;
48403;SDS011;34202;52.536;6.042;2024-03-08T11:29:59;28.30;;;20.80;;
48403;SDS011;34202;52.536;6.042;2024-03-08T11:35:22;30.40;;;20.10;;
48403;SDS011;34202;52.536;6.042;2024-03-08T11:40:23;25.80;;;19.30;;
48403;SDS011;34202;52.536;6.042;2024-03-08T11:45:24;29.40;;;20.50;;
48403;SDS011;34202;52.536;6.042;2024-03-08T11:50:25;31.10;;;20.40;;
48403;SDS011;34202;52.536;6.042;2024-03-08T11:55:26;28.90;;;20.40;;
48403;SDS011;34202;52.536;6.042;2024-03-08T12:00:26;27.90;;;20.10;;
48403;SDS011;34202;52.536;6.042;2024-03-08T12:05:33;28.50;;;21.30;;
48403;SDS011;34202;52.536;6.042;2024-03-08T12:10:34;30.30;;;21.40;;
48403;SDS011;34202;52.536;6.042;2024-03-08T12:15:35;27.30;;;19.40;;
48403;SDS011;34202;52.536;6.042;2024-03-08T12:20:36;25.40;;;19.30;;
48403;SDS011;34202;52.536;6.042;2024-03-08T12:25:38;25.20;;;19.60;;
48403;SDS011;34202;52.536;6.042;2024-03-08T12:30:49;24.30;;;16.50;;
48403;SDS011;34202;52.536;6.042;2024-03-08T12:35:53;23.70;;;17.00;;
48403;SDS011;34202;52.536;6.042;2024-03-08T12:40:55;24.90;;;17.30;;
48403;SDS011;34202;52.536;6.042;2024-03-08T12:45:58;22.20;;;16.60;;
48403;SDS011;34202;52.536;6.042;2024-03-08T12:50:59;26.00;;;16.10;;
48403;SDS011;34202;52.536;6.042;2024-03-08T12:55:59;20.90;;;17.20;;
48403;SDS011;34202;52.536;6.042;2024-03-08T13:01:00;26.10;;;16.50;;
48403;SDS011;34202;52.536;6.042;2024-03-08T13:06:01;26.60;;;15.70;;
48403;SDS011;34202;52.536;6.042;2024-03-08T13:11:08;21.70;;;16.80;;
48403;SDS011;34202;52.536;6.042;2024-03-08T13:16:11;23.70;;;16.80;;
48403;SDS011;34202;52.536;6.042;2024-03-08T13:21:17;22.50;;;16.70;;
48403;SDS011;34202;52.536;6.042;2024-03-08T13:26:20;23.90;;;16.70;;
48403;SDS011;34202;52.536;6.042;2024-03-08T13:31:21;23.90;;;18.00;;
48403;SDS011;34202;52.536;6.042;2024-03-08T13:36:21;23.90;;;17.50;;
48403;SDS011;34202;52.536;6.042;2024-03-08T13:41:29;25.40;;;17.00;;
48403;SDS011;34202;52.536;6.042;2024-03-08T13:46:29;25.90;;;18.30;;
48403;SDS011;34202;52.536;6.042;2024-03-08T13:51:29;21.80;;;17.60;;
48403;SDS011;34202;52.536;6.042;2024-03-08T13:56:30;24.90;;;17.20;;
48403;SDS011;34202;52.536;6.042;2024-03-08T14:01:31;24.30;;;18.70;;
48403;SDS011;34202;52.536;6.042;2024-03-08T14:06:32;25.30;;;16.00;;
48403;SDS011;34202;52.536;6.042;2024-03-08T14:11:32;25.00;;;17.00;;
48403;SDS011;34202;52.536;6.042;2024-03-08T14:16:33;27.40;;;19.00;;
48403;SDS011;34202;52.536;6.042;2024-03-08T14:21:33;23.60;;;17.90;;
48403;SDS011;34202;52.536;6.042;2024-03-08T14:26:34;26.00;;;17.20;;
48403;SDS011;34202;52.536;6.042;2024-03-08T14:31:38;26.60;;;18.30;;
48403;SDS011;34202;52.536;6.042;2024-03-08T14:36:40;22.30;;;15.20;;
48403;SDS011;34202;52.536;6.042;2024-03-08T14:41:40;28.80;;;18.10;;
48403;SDS011;34202;52.536;6.042;2024-03-08T14:46:41;26.30;;;18.90;;
48403;SDS011;34202;52.536;6.042;2024-03-08T14:51:43;26.00;;;18.70;;
48403;SDS011;34202;52.536;6.042;2024-03-08T14:56:44;29.20;;;18.10;;
48403;SDS011;34202;52.536;6.042;2024-03-08T15:01:45;23.30;;;18.20;;
48403;SDS011;34202;52.536;6.042;2024-03-08T15:06:46;22.20;;;16.80;;
48403;SDS011;34202;52.536;6.042;2024-03-08T15:11:48;25.50;;;19.60;;
48403;SDS011;34202;52.536;6.042;2024-03-08T15:16:50;25.90;;;19.50;;
48403;SDS011;34202;52.536;6.042;2024-03-08T15:21:51;26.40;;;20.00;;
48403;SDS011;34202;52.536;6.042;2024-03-08T15:26:56;26.30;;;18.70;;
48403;SDS011;34202;52.536;6.042;2024-03-08T15:31:57;28.10;;;19.20;;
48403;SDS011;34202;52.536;6.042;2024-03-08T15:36:58;25.00;;;19.50;;
48403;SDS011;34202;52.536;6.042;2024-03-08T15:42:02;29.90;;;19.00;;
48403;SDS011;34202;52.536;6.042;2024-03-08T15:47:03;25.10;;;18.20;;
48403;SDS011;34202;52.536;6.042;2024-03-08T15:52:03;27.40;;;19.90;;
48403;SDS011;34202;52.536;6.042;2024-03-08T15:57:06;22.70;;;17.80;;
48403;SDS011;34202;52.536;6.042;2024-03-08T16:02:08;26.80;;;20.30;;
48403;SDS011;34202;52.536;6.042;2024-03-08T16:07:09;24.10;;;18.20;;
48403;SDS011;34202;52.536;6.042;2024-03-08T16:12:10;26.40;;;17.10;;
48403;SDS011;34202;52.536;6.042;2024-03-08T16:17:11;25.50;;;18.50;;
48403;SDS011;34202;52.536;6.042;2024-03-08T16:22:12;31.30;;;21.50;;
48403;SDS011;34202;52.536;6.042;2024-03-08T16:27:13;24.00;;;17.10;;
48403;SDS011;34202;52.536;6.042;2024-03-08T16:32:14;26.20;;;19.60;;
48403;SDS011;34202;52.536;6.042;2024-03-08T16:37:15;21.20;;;15.60;;
48403;SDS011;34202;52.536;6.042;2024-03-08T16:42:16;28.90;;;20.60;;
48403;SDS011;34202;52.536;6.042;2024-03-08T16:47:17;24.60;;;17.90;;
48403;SDS011;34202;52.536;6.042;2024-03-08T16:52:17;21.20;;;16.20;;
48403;SDS011;34202;52.536;6.042;2024-03-08T16:57:22;32.20;;;19.00;;
48403;SDS011;34202;52.536;6.042;2024-03-08T17:02:25;29.90;;;20.40;;
48403;SDS011;34202;52.536;6.042;2024-03-08T17:07:26;30.30;;;19.90;;
48403;SDS011;34202;52.536;6.042;2024-03-08T17:12:26;25.80;;;19.00;;
48403;SDS011;34202;52.536;6.042;2024-03-08T17:18:04;32.40;;;21.30;;
48403;SDS011;34202;52.536;6.042;2024-03-08T17:23:08;33.60;;;19.80;;
48403;SDS011;34202;52.536;6.042;2024-03-08T17:28:13;27.80;;;20.10;;
48403;SDS011;34202;52.536;6.042;2024-03-08T17:33:15;26.60;;;19.20;;
48403;SDS011;34202;52.536;6.042;2024-03-08T17:38:21;28.50;;;20.50;;
48403;SDS011;34202;52.536;6.042;2024-03-08T17:43:24;27.70;;;19.90;;
48403;SDS011;34202;52.536;6.042;2024-03-08T17:48:27;30.30;;;21.10;;
48403;SDS011;34202;52.536;6.042;2024-03-08T17:53:29;31.50;;;20.60;;
48403;SDS011;34202;52.536;6.042;2024-03-08T17:58:34;28.80;;;20.00;;
48403;SDS011;34202;52.536;6.042;2024-03-08T18:03:35;28.60;;;18.70;;
48403;SDS011;34202;52.536;6.042;2024-03-08T18:08:36;26.00;;;19.20;;
48403;SDS011;34202;52.536;6.042;2024-03-08T18:13:37;27.80;;;17.50;;
48403;SDS011;34202;52.536;6.042;2024-03-08T18:18:37;30.00;;;19.80;;
48403;SDS011;34202;52.536;6.042;2024-03-08T18:23:38;32.50;;;21.90;;
48403;SDS011;34202;52.536;6.042;2024-03-08T18:28:40;30.70;;;22.30;;
48403;SDS011;34202;52.536;6.042;2024-03-08T18:33:41;32.20;;;22.00;;
48403;SDS011;34202;52.536;6.042;2024-03-08T18:38:44;32.90;;;20.70;;
48403;SDS011;34202;52.536;6.042;2024-03-08T18:43:45;30.60;;;22.20;;
48403;SDS011;34202;52.536;6.042;2024-03-08T18:48:45;32.90;;;21.20;;
48403;SDS011;34202;52.536;6.042;2024-03-08T18:53:46;30.50;;;22.30;;
48403;SDS011;34202;52.536;6.042;2024-03-08T18:58:46;30.70;;;21.90;;
48403;SDS011;34202;52.536;6.042;2024-03-08T19:03:47;33.50;;;21.70;;
48403;SDS011;34202;52.536;6.042;2024-03-08T19:08:48;32.30;;;19.90;;
48403;SDS011;34202;52.536;6.042;2024-03-08T19:13:54;36.50;;;22.90;;
48403;SDS011;34202;52.536;6.042;2024-03-08T19:18:55;32.90;;;21.50;;
48403;SDS011;34202;52.536;6.042;2024-03-08T19:23:55;32.60;;;23.20;;
48403;SDS011;34202;52.536;6.042;2024-03-08T19:28:56;36.90;;;23.20;;
48403;SDS011;34202;52.536;6.042;2024-03-08T19:33:56;30.00;;;20.10;;
48403;SDS011;34202;52.536;6.042;2024-03-08T19:38:57;34.40;;;22.00;;
48403;SDS011;34202;52.536;6.042;2024-03-08T19:43:58;32.40;;;22.10;;
48403;SDS011;34202;52.536;6.042;2024-03-08T19:48:58;33.40;;;22.20;;
48403;SDS011;34202;52.536;6.042;2024-03-08T19:53:59;34.90;;;22.50;;
48403;SDS011;34202;52.536;6.042;2024-03-08T19:59:00;35.60;;;24.20;;
48403;SDS011;34202;52.536;6.042;2024-03-08T20:04:01;40.20;;;25.00;;
48403;SDS011;34202;52.536;6.042;2024-03-08T20:09:02;36.90;;;23.60;;
48403;SDS011;34202;52.536;6.042;2024-03-08T20:14:03;34.00;;;22.80;;
48403;SDS011;34202;52.536;6.042;2024-03-08T20:19:05;39.90;;;24.00;;
48403;SDS011;34202;52.536;6.042;2024-03-08T20:24:06;34.10;;;21.50;;
48403;SDS011;34202;52.536;6.042;2024-03-08T20:29:07;37.80;;;25.90;;
48403;SDS011;34202;52.536;6.042;2024-03-08T20:34:08;36.80;;;23.40;;
48403;SDS011;34202;52.536;6.042;2024-03-08T20:39:09;34.50;;;23.20;;
48403;SDS011;34202;52.536;6.042;2024-03-08T20:44:10;44.10;;;26.00;;
48403;SDS011;34202;52.536;6.042;2024-03-08T20:49:10;36.20;;;24.60;;
48403;SDS011;34202;52.536;6.042;2024-03-08T20:54:12;37.80;;;24.50;;
48403;SDS011;34202;52.536;6.042;2024-03-08T20:59:15;39.70;;;24.30;;
48403;SDS011;34202;52.536;6.042;2024-03-08T21:04:15;41.40;;;25.00;;
48403;SDS011;34202;52.536;6.042;2024-03-08T21:09:17;39.00;;;24.50;;
48403;SDS011;34202;52.536;6.042;2024-03-08T21:14:18;38.00;;;23.80;;
48403;SDS011;34202;52.536;6.042;2024-03-08T21:19:18;38.60;;;23.60;;
48403;SDS011;34202;52.536;6.042;2024-03-08T21:24:19;42.30;;;27.50;;
48403;SDS011;34202;52.536;6.042;2024-03-08T21:29:20;41.70;;;27.20;;
48403;SDS011;34202;52.536;6.042;2024-03-08T21:34:21;38.30;;;25.40;;
48403;SDS011;34202;52.536;6.042;2024-03-08T21:39:21;39.60;;;26.00;;
48403;SDS011;34202;52.536;6.042;2024-03-08T21:44:28;38.90;;;24.00;;
48403;SDS011;34202;52.536;6.042;2024-03-08T21:49:29;38.50;;;26.80;;
48403;SDS011;34202;52.536;6.042;2024-03-08T21:54:29;46.30;;;27.40;;
48403;SDS011;34202;52.536;6.042;2024-03-08T21:59:30;47.40;;;28.90;;
48403;SDS011;34202;52.536;6.042;2024-03-08T22:04:30;41.70;;;27.00;;
48403;SDS011;34202;52.536;6.042;2024-03-08T22:09:31;38.30;;;26.90;;
48403;SDS011;34202;52.536;6.042;2024-03-08T22:14:31;41.10;;;28.40;;
48403;SDS011;34202;52.536;6.042;2024-03-08T22:19:33;42.30;;;28.00;;
48403;SDS011;34202;52.536;6.042;2024-03-08T22:24:33;42.80;;;24.90;;
48403;SDS011;34202;52.536;6.042;2024-03-08T22:29:34;41.70;;;27.20;;
48403;SDS011;34202;52.536;6.042;2024-03-08T22:34:34;36.80;;;24.60;;
48403;SDS011;34202;52.536;6.042;2024-03-08T22:39:35;42.10;;;27.80;;
48403;SDS011;34202;52.536;6.042;2024-03-08T22:44:36;41.90;;;24.90;;
48403;SDS011;34202;52.536;6.042;2024-03-08T22:49:38;36.00;;;23.50;;
48403;SDS011;34202;52.536;6.042;2024-03-08T22:54:39;44.30;;;26.90;;
48403;SDS011;34202;52.536;6.042;2024-03-08T22:59:40;40.60;;;24.00;;
48403;SDS011;34202;52.536;6.042;2024-03-08T23:04:41;44.80;;;30.20;;
48403;SDS011;34202;52.536;6.042;2024-03-08T23:09:41;43.50;;;26.10;;
48403;SDS011;34202;52.536;6.042;2024-03-08T23:14:43;36.00;;;22.80;;
48403;SDS011;34202;52.536;6.042;2024-03-08T23:19:43;47.10;;;27.30;;
48403;SDS011;34202;52.536;6.042;2024-03-08T23:24:44;41.30;;;26.50;;
48403;SDS011;34202;52.536;6.042;2024-03-08T23:29:44;41.70;;;25.50;;
48403;SDS011;34202;52.536;6.042;2024-03-08T23:34:45;42.40;;;24.80;;
48403;SDS011;34202;52.536;6.042;2024-03-08T23:39:45;36.30;;;23.00;;
48403;SDS011;34202;52.536;6.042;2024-03-08T23:44:46;40.10;;;24.00;;
48403;SDS011;34202;52.536;6.042;2024-03-08T23:49:47;38.00;;;24.90;;
48403;SDS011;34202;52.536;6.042;2024-03-08T23:54:52;44.10;;;27.60;;
48403;SDS011;34202;52.536;6.042;2024-03-08T23:59:53;40.30;;;25.10;;
